Time;durP1;ratioP1;P1;durP2;ratioP2;P2;SDS_P1;SDS_P2;PMS_P1;PMS_P2;Temp;Humidity;BMP_temperature;BMP_pressure;BME280_temperature;BME280_humidity;BME280_pressure;Samples;Min_cycle;Max_cycle;Signal;HPM_P1;HPM_P2
2022/08/29 00:01:28;;;;;;;4.07;3.67;;;;;;;;;;5049337;28;20041;-50
2022/08/29 00:03:56;;;;;;;6.55;4.05;;;;;;;;;;5045910;28;20044;-48
2022/08/29 00:06:22;;;;;;;3.85;3.45;;;;;;;;;;5048792;28;20481;-49
2022/08/29 00:08:47;;;;;;;6.00;4.10;;;;;;;;;;5048487;28;20029;-50
2022/08/29 00:11:13;;;;;;;5.15;4.00;;;;;;;;;;5050389;28;20040;-52
2022/08/29 00:13:40;;;;;;;4.10;3.80;;;;;;;;;;5049242;28;20021;-50
2022/08/29 00:16:07;;;;;;;7.38;4.15;;;;;;;;;;5046971;28;20052;-48
2022/08/29 00:18:33;;;;;;;4.57;4.13;;;;;;;;;;5048930;28;20033;-50
2022/08/29 00:20:59;;;;;;;4.70;4.18;;;;;;;;;;5046937;28;20040;-54
2022/08/29 00:23:24;;;;;;;5.25;4.28;;;;;;;;;;5046989;28;20500;-50
2022/08/29 00:25:50;;;;;;;4.32;4.00;;;;;;;;;;5051303;28;20028;-50
2022/08/29 00:28:16;;;;;;;4.35;3.95;;;;;;;;;;5048542;28;20032;-48
2022/08/29 00:30:42;;;;;;;4.78;4.22;;;;;;;;;;5047685;28;20021;-49
2022/08/29 00:33:08;;;;;;;8.50;4.55;;;;;;;;;;5047087;28;20035;-49
2022/08/29 00:35:36;;;;;;;10.73;4.03;;;;;;;;;;5048220;28;20029;-50
2022/08/29 00:38:04;;;;;;;5.18;3.90;;;;;;;;;;5048277;28;20029;-50
2022/08/29 00:40:52;;;;;;;4.60;4.20;;;;;;;;;;5048543;28;20029;-51
2022/08/29 00:43:25;;;;;;;5.00;4.28;;;;;;;;;;5048939;28;20037;-52
2022/08/29 00:46:01;;;;;;;5.78;4.20;;;;;;;;;;5046530;28;20025;-51
2022/08/29 00:48:28;;;;;;;12.10;4.38;;;;;;;;;;5047237;28;20033;-47
2022/08/29 00:51:00;;;;;;;4.38;4.07;;;;;;;;;;5048812;28;20044;-51
2022/08/29 00:53:38;;;;;;;6.53;4.20;;;;;;;;;;5044471;28;20037;-48
2022/08/29 00:56:07;;;;;;;8.35;4.20;;;;;;;;;;5047378;28;20045;-52
2022/08/29 00:59:05;;;;;;;4.88;4.35;;;;;;;;;;5046178;28;20028;-48
2022/08/29 01:01:31;;;;;;;4.38;3.80;;;;;;;;;;5044304;28;20037;-51
2022/08/29 01:03:57;;;;;;;5.50;4.03;;;;;;;;;;5045605;28;20139;-48
2022/08/29 01:06:25;;;;;;;7.47;4.15;;;;;;;;;;5047605;28;20021;-48
2022/08/29 01:08:51;;;;;;;4.80;4.13;;;;;;;;;;5048746;28;20033;-51
2022/08/29 01:14:03;;;;;;;6.93;4.32;;;;;;;;;;5046182;28;20036;-49
2022/08/29 01:16:30;;;;;;;4.88;4.40;;;;;;;;;;5048470;28;20032;-48
2022/08/29 01:19:02;;;;;;;4.78;4.30;;;;;;;;;;5047863;28;20021;-50
2022/08/29 01:21:54;;;;;;;4.30;3.90;;;;;;;;;;5047030;28;20416;-51
2022/08/29 01:24:40;;;;;;;12.77;4.65;;;;;;;;;;5046924;28;20090;-50
2022/08/29 01:27:06;;;;;;;4.55;4.10;;;;;;;;;;5047533;28;20028;-49
2022/08/29 01:29:33;;;;;;;4.28;3.53;;;;;;;;;;5049411;28;20132;-50
2022/08/29 01:31:59;;;;;;;6.03;4.10;;;;;;;;;;5047527;28;20025;-51
2022/08/29 01:34:27;;;;;;;4.53;4.13;;;;;;;;;;5045176;28;20048;-49
2022/08/29 01:37:02;;;;;;;5.70;4.20;;;;;;;;;;5046240;28;20033;-48
2022/08/29 01:39:31;;;;;;;4.63;3.63;;;;;;;;;;5049380;28;20060;-47
2022/08/29 01:42:02;;;;;;;5.57;3.83;;;;;;;;;;5050671;28;20129;-51
2022/08/29 01:44:28;;;;;;;4.43;3.72;;;;;;;;;;5046200;28;20123;-48
2022/08/29 01:46:56;;;;;;;8.05;3.50;;;;;;;;;;5046031;28;20113;-47
2022/08/29 01:49:22;;;;;;;5.18;4.00;;;;;;;;;;5047709;28;20484;-48
2022/08/29 01:51:49;;;;;;;3.78;3.40;;;;;;;;;;5045799;28;20051;-49
2022/08/29 01:54:14;;;;;;;4.72;4.00;;;;;;;;;;5048778;28;20461;-50
2022/08/29 01:56:44;;;;;;;4.25;3.80;;;;;;;;;;5048124;28;20068;-47
2022/08/29 01:59:13;;;;;;;4.18;3.78;;;;;;;;;;5046902;28;20474;-48
2022/08/29 02:01:42;;;;;;;4.95;3.67;;;;;;;;;;5047284;28;20052;-50
2022/08/29 02:04:08;;;;;;;5.57;3.58;;;;;;;;;;5050746;28;20047;-48
2022/08/29 02:06:35;;;;;;;4.45;3.63;;;;;;;;;;5045271;28;20048;-50
2022/08/29 02:09:01;;;;;;;6.63;3.72;;;;;;;;;;5048324;28;20106;-48
2022/08/29 02:11:27;;;;;;;9.32;4.03;;;;;;;;;;5044324;28;20025;-49
2022/08/29 02:13:56;;;;;;;7.72;4.03;;;;;;;;;;5046448;28;20514;-50
2022/08/29 02:16:24;;;;;;;7.68;3.90;;;;;;;;;;5047822;28;20508;-49
2022/08/29 02:18:50;;;;;;;6.70;4.00;;;;;;;;;;5045014;28;20037;-50
2022/08/29 02:21:19;;;;;;;7.18;3.80;;;;;;;;;;5040478;28;20064;-50
2022/08/29 02:23:45;;;;;;;5.75;4.15;;;;;;;;;;5045913;28;20473;-52
2022/08/29 02:26:11;;;;;;;5.10;4.30;;;;;;;;;;5046099;28;20048;-48
2022/08/29 02:28:38;;;;;;;8.27;3.97;;;;;;;;;;5045760;28;20025;-48
2022/08/29 02:31:04;;;;;;;5.97;4.05;;;;;;;;;;5047715;28;20029;-48
2022/08/29 02:33:31;;;;;;;7.32;4.10;;;;;;;;;;5046264;28;20033;-50
2022/08/29 02:35:58;;;;;;;4.72;4.03;;;;;;;;;;5046164;28;20692;-51
2022/08/29 02:38:23;;;;;;;5.07;4.15;;;;;;;;;;5046406;28;20062;-49
2022/08/29 02:40:50;;;;;;;9.80;4.30;;;;;;;;;;5045959;28;20024;-50
2022/08/29 02:43:18;;;;;;;7.72;4.13;;;;;;;;;;5047064;28;20035;-49
2022/08/29 02:45:45;;;;;;;4.95;3.72;;;;;;;;;;5043393;28;20373;-49
2022/08/29 02:48:11;;;;;;;5.00;3.80;;;;;;;;;;5047270;28;20033;-51
2022/08/29 02:50:44;;;;;;;3.92;3.60;;;;;;;;;;5046999;28;20024;-51
2022/08/29 02:53:10;;;;;;;4.45;3.70;;;;;;;;;;5045013;28;20035;-51
2022/08/29 02:55:37;;;;;;;4.85;3.63;;;;;;;;;;5044828;28;20045;-49
2022/08/29 02:58:03;;;;;;;5.82;3.60;;;;;;;;;;5041277;28;20128;-50
2022/08/29 03:00:29;;;;;;;4.50;3.45;;;;;;;;;;5045394;28;20055;-50
2022/08/29 03:02:56;;;;;;;5.65;3.53;;;;;;;;;;5044701;28;20036;-47
2022/08/29 03:05:26;;;;;;;4.00;3.70;;;;;;;;;;5048933;28;20041;-50
2022/08/29 03:07:56;;;;;;;5.10;3.90;;;;;;;;;;5047136;28;20107;-50
2022/08/29 03:10:22;;;;;;;7.47;3.50;;;;;;;;;;5045028;28;20064;-49
2022/08/29 03:12:48;;;;;;;3.88;3.58;;;;;;;;;;5044387;28;20029;-48
2022/08/29 03:15:15;;;;;;;3.78;3.47;;;;;;;;;;5044756;28;20021;-50
2022/08/29 03:17:40;;;;;;;5.40;3.65;;;;;;;;;;5046623;28;20380;-49
2022/08/29 03:20:08;;;;;;;5.45;3.58;;;;;;;;;;5046045;28;20029;-48
2022/08/29 03:22:34;;;;;;;5.25;3.70;;;;;;;;;;5045790;28;20037;-48
2022/08/29 03:25:01;;;;;;;3.80;3.22;;;;;;;;;;5045136;28;20032;-50
2022/08/29 03:27:28;;;;;;;4.82;3.40;;;;;;;;;;5043587;28;20506;-49
2022/08/29 03:29:54;;;;;;;4.97;3.50;;;;;;;;;;5043967;28;20026;-48
2022/08/29 03:32:20;;;;;;;5.20;3.40;;;;;;;;;;5048596;28;20488;-48
2022/08/29 03:34:46;;;;;;;8.90;3.40;;;;;;;;;;5045550;28;20086;-49
2022/08/29 03:37:11;;;;;;;4.03;3.17;;;;;;;;;;5040312;28;20693;-48
2022/08/29 03:39:37;;;;;;;3.40;3.10;;;;;;;;;;5046912;28;20064;-48
2022/08/29 03:42:07;;;;;;;7.18;3.17;;;;;;;;;;5044088;28;20029;-47
2022/08/29 03:44:38;;;;;;;3.80;2.95;;;;;;;;;;5044945;28;20545;-47
2022/08/29 03:47:04;;;;;;;3.90;3.55;;;;;;;;;;5040591;28;20029;-49
2022/08/29 03:49:31;;;;;;;4.53;3.20;;;;;;;;;;5044355;28;20041;-51
2022/08/29 03:51:57;;;;;;;4.30;3.22;;;;;;;;;;5046094;28;20063;-49
2022/08/29 03:54:23;;;;;;;9.60;3.30;;;;;;;;;;5048040;28;20025;-45
2022/08/29 03:56:49;;;;;;;8.02;3.17;;;;;;;;;;5043573;28;20041;-47
2022/08/29 03:59:15;;;;;;;5.15;3.58;;;;;;;;;;5044213;28;20527;-51
2022/08/29 04:01:41;;;;;;;4.97;3.30;;;;;;;;;;5044479;28;20025;-51
2022/08/29 04:04:07;;;;;;;6.90;3.47;;;;;;;;;;5046961;28;20033;-49
2022/08/29 04:06:33;;;;;;;3.97;3.60;;;;;;;;;;5044135;28;20733;-47
2022/08/29 04:08:59;;;;;;;4.22;3.78;;;;;;;;;;5044968;28;20021;-49
2022/08/29 04:11:27;;;;;;;4.65;3.13;;;;;;;;;;5046714;28;20029;-48
2022/08/29 04:13:53;;;;;;;4.00;3.45;;;;;;;;;;5047020;28;20046;-49
2022/08/29 04:16:22;;;;;;;3.85;3.30;;;;;;;;;;5050168;28;20025;-47
2022/08/29 04:18:48;;;;;;;3.53;3.22;;;;;;;;;;5049492;28;20033;-47
2022/08/29 04:21:15;;;;;;;3.58;3.28;;;;;;;;;;5047858;28;20036;-49
2022/08/29 04:23:41;;;;;;;3.63;3.28;;;;;;;;;;5048925;28;20021;-48
2022/08/29 04:26:18;;;;;;;4.85;3.42;;;;;;;;;;5049242;28;20021;-48
2022/08/29 04:28:44;;;;;;;6.57;3.15;;;;;;;;;;5044218;28;20495;-48
2022/08/29 04:31:19;;;;;;;3.60;2.97;;;;;;;;;;5049456;28;20025;-51
2022/08/29 04:33:46;;;;;;;4.65;3.00;;;;;;;;;;5044733;28;20029;-48
2022/08/29 04:36:11;;;;;;;6.03;3.22;;;;;;;;;;5047814;28;20133;-47
2022/08/29 04:38:37;;;;;;;3.40;3.10;;;;;;;;;;5049706;28;20077;-47
2022/08/29 04:41:05;;;;;;;5.90;3.10;;;;;;;;;;5050032;28;20016;-47
2022/08/29 04:43:31;;;;;;;4.75;3.50;;;;;;;;;;5049783;28;20053;-49
2022/08/29 04:45:57;;;;;;;4.72;3.10;;;;;;;;;;5049563;28;20134;-48
2022/08/29 04:48:22;;;;;;;6.95;3.53;;;;;;;;;;5050462;28;20021;-52
2022/08/29 04:50:59;;;;;;;3.63;3.33;;;;;;;;;;5043340;28;20124;-50
2022/08/29 04:53:26;;;;;;;5.15;3.13;;;;;;;;;;5045907;28;20030;-51
2022/08/29 04:56:05;;;;;;;3.10;2.90;;;;;;;;;;5048179;28;20033;-52
2022/08/29 04:58:33;;;;;;;5.60;3.40;;;;;;;;;;5046364;28;20029;-48
2022/08/29 05:00:59;;;;;;;6.28;3.45;;;;;;;;;;5046666;28;20740;-51
2022/08/29 05:03:25;;;;;;;5.05;3.05;;;;;;;;;;5048185;28;20033;-52
2022/08/29 05:05:58;;;;;;;10.40;3.10;;;;;;;;;;5047937;28;20505;-49
2022/08/29 05:08:25;;;;;;;3.25;2.67;;;;;;;;;;5043820;28;20490;-50
2022/08/29 05:10:51;;;;;;;5.60;3.10;;;;;;;;;;5047684;28;20033;-48
2022/08/29 05:13:17;;;;;;;6.85;2.88;;;;;;;;;;5042823;28;20032;-48
2022/08/29 05:15:44;;;;;;;3.00;2.70;;;;;;;;;;5048931;28;20029;-47
2022/08/29 05:18:13;;;;;;;3.25;2.92;;;;;;;;;;5045423;28;20033;-52
2022/08/29 05:20:41;;;;;;;3.30;3.05;;;;;;;;;;5046153;28;20043;-47
2022/08/29 05:23:08;;;;;;;3.42;3.13;;;;;;;;;;5047711;28;20473;-48
2022/08/29 05:25:33;;;;;;;3.92;2.95;;;;;;;;;;5045110;28;20060;-49
2022/08/29 05:27:59;;;;;;;3.72;3.15;;;;;;;;;;5047361;28;20182;-48
2022/08/29 05:30:25;;;;;;;3.85;2.85;;;;;;;;;;5047831;28;20395;-48
2022/08/29 05:32:51;;;;;;;8.95;3.17;;;;;;;;;;5048870;28;20029;-51
2022/08/29 05:35:17;;;;;;;7.10;2.78;;;;;;;;;;5044256;28;20025;-48
2022/08/29 05:37:43;;;;;;;3.25;3.00;;;;;;;;;;5046651;28;20381;-47
2022/08/29 05:40:09;;;;;;;4.13;2.92;;;;;;;;;;5045530;28;20033;-52
2022/08/29 05:42:35;;;;;;;7.53;2.88;;;;;;;;;;5044707;28;20044;-49
2022/08/29 05:45:05;;;;;;;3.78;2.80;;;;;;;;;;5046262;28;20029;-48
2022/08/29 05:47:32;;;;;;;3.25;2.75;;;;;;;;;;5045527;28;20036;-49
2022/08/29 05:49:58;;;;;;;11.25;3.08;;;;;;;;;;5047292;28;20059;-47
2022/08/29 05:52:25;;;;;;;5.55;3.03;;;;;;;;;;5046825;28;20411;-49
2022/08/29 05:54:51;;;;;;;4.22;3.15;;;;;;;;;;5047192;28;20466;-51
2022/08/29 05:57:19;;;;;;;5.18;2.88;;;;;;;;;;5044617;28;20040;-49
2022/08/29 05:59:51;;;;;;;3.30;3.05;;;;;;;;;;5046314;28;20045;-49
2022/08/29 06:02:18;;;;;;;6.53;2.97;;;;;;;;;;5044601;28;20427;-47
2022/08/29 06:04:44;;;;;;;3.33;2.90;;;;;;;;;;5045434;28;20108;-49
2022/08/29 06:07:11;;;;;;;5.95;2.97;;;;;;;;;;5047317;28;20059;-51
2022/08/29 06:09:38;;;;;;;4.63;2.90;;;;;;;;;;5046953;28;20024;-50
2022/08/29 06:12:05;;;;;;;8.43;2.97;;;;;;;;;;5045872;28;20028;-51
2022/08/29 06:14:31;;;;;;;6.95;2.88;;;;;;;;;;5043155;28;20032;-47
2022/08/29 06:16:57;;;;;;;3.88;2.65;;;;;;;;;;5046612;28;20039;-49
2022/08/29 06:19:23;;;;;;;4.50;2.72;;;;;;;;;;5046109;28;20124;-48
2022/08/29 06:21:49;;;;;;;4.53;2.60;;;;;;;;;;5043957;28;20033;-50
2022/08/29 06:24:15;;;;;;;2.75;2.53;;;;;;;;;;5047456;28;20096;-47
2022/08/29 06:26:44;;;;;;;4.03;2.60;;;;;;;;;;5046413;28;20363;-53
2022/08/29 06:29:10;;;;;;;5.78;2.45;;;;;;;;;;5047752;28;20031;-48
2022/08/29 06:31:37;;;;;;;3.78;2.83;;;;;;;;;;5045360;28;20032;-48
2022/08/29 06:34:04;;;;;;;3.85;2.67;;;;;;;;;;5044438;28;20927;-47
2022/08/29 06:36:30;;;;;;;8.57;2.50;;;;;;;;;;5043047;28;20044;-49
2022/08/29 06:38:58;;;;;;;11.38;2.92;;;;;;;;;;5046212;28;20029;-47
2022/08/29 06:41:24;;;;;;;10.38;2.70;;;;;;;;;;5046126;28;20136;-51
2022/08/29 06:43:50;;;;;;;2.50;2.30;;;;;;;;;;5045312;28;20033;-48
2022/08/29 06:46:26;;;;;;;3.22;2.40;;;;;;;;;;5047858;28;20066;-51
2022/08/29 06:48:54;;;;;;;3.70;2.40;;;;;;;;;;5044473;28;20025;-47
2022/08/29 06:51:20;;;;;;;11.82;2.58;;;;;;;;;;5041155;28;20017;-48
2022/08/29 06:53:46;;;;;;;5.63;2.92;;;;;;;;;;5048926;28;20478;-48
2022/08/29 06:56:13;;;;;;;4.85;2.67;;;;;;;;;;5046156;28;20052;-49
2022/08/29 06:58:39;;;;;;;4.10;2.42;;;;;;;;;;5043280;28;20486;-50
2022/08/29 07:01:17;;;;;;;3.72;2.50;;;;;;;;;;5043416;28;20124;-47
2022/08/29 07:03:43;;;;;;;2.72;2.40;;;;;;;;;;5027156;28;20029;-48
2022/08/29 07:06:09;;;;;;;5.82;2.30;;;;;;;;;;5042325;28;20036;-50
2022/08/29 07:08:35;;;;;;;3.15;2.58;;;;;;;;;;5044307;28;20049;-50
2022/08/29 07:11:01;;;;;;;4.65;2.10;;;;;;;;;;5046475;28;20469;-52
2022/08/29 07:13:27;;;;;;;5.25;2.60;;;;;;;;;;5045013;28;20040;-49
2022/08/29 07:15:53;;;;;;;7.38;2.60;;;;;;;;;;5045744;28;20037;-49
2022/08/29 07:18:19;;;;;;;4.63;2.78;;;;;;;;;;5045444;28;20062;-51
2022/08/29 07:20:44;;;;;;;4.80;2.88;;;;;;;;;;5047316;28;20021;-52
2022/08/29 07:23:11;;;;;;;4.50;3.28;;;;;;;;;;5042959;28;20492;-49
2022/08/29 07:25:37;;;;;;;8.82;3.55;;;;;;;;;;5044298;28;20040;-48
2022/08/29 07:28:04;;;;;;;4.43;3.00;;;;;;;;;;5044534;28;20017;-50
2022/08/29 07:30:30;;;;;;;8.30;3.70;;;;;;;;;;5045290;28;20029;-47
2022/08/29 07:32:56;;;;;;;10.95;3.38;;;;;;;;;;5043039;28;20503;-49
2022/08/29 07:35:24;;;;;;;9.13;3.03;;;;;;;;;;5044798;28;20386;-48
2022/08/29 07:37:50;;;;;;;9.70;3.28;;;;;;;;;;5043589;28;20052;-48
2022/08/29 07:40:16;;;;;;;8.77;3.00;;;;;;;;;;5040804;28;20111;-54
2022/08/29 07:42:43;;;;;;;5.72;2.40;;;;;;;;;;5044000;28;20152;-49
2022/08/29 07:45:10;;;;;;;7.43;2.97;;;;;;;;;;5045017;28;20033;-48
2022/08/29 07:47:37;;;;;;;5.82;2.70;;;;;;;;;;5045087;28;20521;-54
2022/08/29 07:50:06;;;;;;;8.30;2.55;;;;;;;;;;5046473;28;20032;-51
2022/08/29 07:52:32;;;;;;;6.60;2.83;;;;;;;;;;5047908;28;20043;-48
2022/08/29 07:54:58;;;;;;;6.90;2.53;;;;;;;;;;5045711;28;20059;-48
2022/08/29 07:57:24;;;;;;;9.40;2.70;;;;;;;;;;5051571;28;20045;-53
2022/08/29 07:59:50;;;;;;;7.60;2.75;;;;;;;;;;5049599;28;20112;-50
2022/08/29 08:02:15;;;;;;;3.70;2.40;;;;;;;;;;5048091;28;20029;-48
2022/08/29 08:04:41;;;;;;;6.40;2.70;;;;;;;;;;5049823;28;20465;-48
2022/08/29 08:07:09;;;;;;;6.15;2.75;;;;;;;;;;5050037;28;20021;-50
2022/08/29 08:09:36;;;;;;;4.15;2.33;;;;;;;;;;5046140;28;20111;-52
2022/08/29 08:12:04;;;;;;;5.93;2.30;;;;;;;;;;5049139;28;20606;-52
2022/08/29 08:14:30;;;;;;;10.38;2.90;;;;;;;;;;5048996;28;20482;-48
2022/08/29 08:16:55;;;;;;;5.28;2.58;;;;;;;;;;5048828;28;20029;-51
2022/08/29 08:19:21;;;;;;;10.20;2.38;;;;;;;;;;5047141;28;20037;-52
2022/08/29 08:21:47;;;;;;;3.65;2.50;;;;;;;;;;5048881;28;20033;-55
2022/08/29 08:24:13;;;;;;;9.75;2.35;;;;;;;;;;5047324;28;20036;-50
2022/08/29 08:26:38;;;;;;;14.82;2.63;;;;;;;;;;5051823;28;20075;-50
2022/08/29 08:29:04;;;;;;;4.20;2.20;;;;;;;;;;5048479;28;20461;-50
2022/08/29 08:31:30;;;;;;;2.67;2.28;;;;;;;;;;5031681;28;20025;-52
2022/08/29 08:33:55;;;;;;;6.90;2.47;;;;;;;;;;5046077;28;20466;-51
2022/08/29 08:36:23;;;;;;;9.63;2.58;;;;;;;;;;5047956;28;20063;-52
2022/08/29 08:38:50;;;;;;;5.38;2.63;;;;;;;;;;5045973;28;20037;-50
2022/08/29 08:41:25;;;;;;;5.40;2.75;;;;;;;;;;5049126;28;20052;-53
2022/08/29 08:44:05;;;;;;;7.88;2.90;;;;;;;;;;5044886;28;20053;-50
2022/08/29 08:46:43;;;;;;;7.82;3.05;;;;;;;;;;5045736;28;20079;-52
2022/08/29 08:49:15;;;;;;;11.80;2.83;;;;;;;;;;5046194;28;20082;-53
2022/08/29 08:51:49;;;;;;;12.20;2.75;;;;;;;;;;5038926;28;20037;-53
2022/08/29 08:54:30;;;;;;;11.05;2.65;;;;;;;;;;5045447;28;20550;-53
2022/08/29 08:57:06;;;;;;;6.63;2.80;;;;;;;;;;5043890;28;20087;-52
2022/08/29 08:59:39;;;;;;;5.85;2.25;;;;;;;;;;5042379;28;20103;-53
2022/08/29 09:02:08;;;;;;;;;;;;;;;;;;5044624;28;20056;-52
2022/08/29 09:05:01;;;;;;;5.55;2.22;;;;;;;;;;5048896;28;19917;-49
2022/08/29 09:07:45;;;;;;;8.95;2.60;;;;;;;;;;5046928;28;20037;-53
2022/08/29 09:10:39;;;;;;;6.63;2.40;;;;;;;;;;5047647;28;20029;-52
2022/08/29 09:13:15;;;;;;;2.58;2.38;;;;;;;;;;5047987;28;20025;-51
2022/08/29 09:15:44;;;;;;;4.97;2.90;;;;;;;;;;5040262;28;20052;-53
2022/08/29 09:18:30;;;;;;;2.95;2.40;;;;;;;;;;5043137;28;20692;-53
2022/08/29 09:20:58;;;;;;;3.75;2.80;;;;;;;;;;5046223;28;20067;-52
2022/08/29 09:23:56;;;;;;;4.80;2.83;;;;;;;;;;5046926;28;20509;-48
2022/08/29 09:26:26;;;;;;;9.18;2.78;;;;;;;;;;5030517;28;20486;-51
2022/08/29 09:28:52;;;;;;;2.60;2.40;;;;;;;;;;5042124;28;20036;-53
2022/08/29 09:31:31;;;;;;;6.80;2.70;;;;;;;;;;5045308;28;20029;-50
2022/08/29 09:34:03;;;;;;;4.40;2.45;;;;;;;;;;5045538;28;20017;-48
2022/08/29 09:36:40;;;;;;;7.45;2.58;;;;;;;;;;5043462;28;20065;-47
2022/08/29 09:39:35;;;;;;;5.53;2.50;;;;;;;;;;5049885;28;20412;-49
2022/08/29 09:42:10;;;;;;;5.07;2.70;;;;;;;;;;5033955;28;20036;-50
2022/08/29 09:44:38;;;;;;;3.47;2.63;;;;;;;;;;5043582;28;20068;-46
2022/08/29 09:47:18;;;;;;;6.03;2.40;;;;;;;;;;5042243;28;20028;-48
2022/08/29 09:50:09;;;;;;;5.20;2.50;;;;;;;;;;5047231;28;20029;-49
2022/08/29 09:52:49;;;;;;;2.78;2.50;;;;;;;;;;5046456;28;20393;-50
2022/08/29 09:55:30;;;;;;;4.65;2.67;;;;;;;;;;5045036;28;20045;-48
2022/08/29 09:58:09;;;;;;;5.75;2.92;;;;;;;;;;5044463;28;20045;-47
2022/08/29 10:00:37;;;;;;;3.67;2.47;;;;;;;;;;5042853;28;20048;-46
2022/08/29 10:03:08;;;;;;;4.18;2.33;;;;;;;;;;5048347;28;20024;-48
2022/08/29 10:05:43;;;;;;;6.68;2.60;;;;;;;;;;5047964;28;20030;-51
2022/08/29 10:08:35;;;;;;;3.67;2.42;;;;;;;;;;5041895;28;20067;-48
2022/08/29 10:11:16;;;;;;;5.47;2.40;;;;;;;;;;5045483;28;20037;-53
2022/08/29 10:13:52;;;;;;;3.10;2.47;;;;;;;;;;5047768;28;20028;-47
2022/08/29 10:16:27;;;;;;;7.03;2.63;;;;;;;;;;5044831;28;20068;-47
2022/08/29 10:18:57;;;;;;;7.00;2.60;;;;;;;;;;5046872;28;20043;-47
2022/08/29 10:21:48;;;;;;;3.33;2.40;;;;;;;;;;5045721;28;20029;-48
2022/08/29 10:24:31;;;;;;;8.20;2.47;;;;;;;;;;5042347;28;20036;-50
2022/08/29 10:27:42;;;;;;;5.38;2.60;;;;;;;;;;5041029;28;21268;-54
2022/08/29 10:30:15;;;;;;;4.80;2.45;;;;;;;;;;5044471;28;20037;-48
2022/08/29 10:32:59;;;;;;;2.70;2.50;;;;;;;;;;5045999;28;20071;-49
2022/08/29 10:35:35;;;;;;;5.32;2.45;;;;;;;;;;5046041;28;20474;-50
2022/08/29 10:38:28;;;;;;;5.68;2.85;;;;;;;;;;5045520;28;20469;-51
2022/08/29 10:41:03;;;;;;;2.72;2.53;;;;;;;;;;5042272;28;20503;-49
2022/08/29 10:44:09;;;;;;;3.72;2.50;;;;;;;;;;5038658;28;20072;-47
2022/08/29 10:47:08;;;;;;;10.10;2.75;;;;;;;;;;5045311;28;20496;-52
2022/08/29 10:49:51;;;;;;;8.30;2.30;;;;;;;;;;5046892;28;20094;-50
2022/08/29 10:52:34;;;;;;;5.28;2.17;;;;;;;;;;5046460;28;20036;-50
2022/08/29 10:55:06;;;;;;;3.60;2.25;;;;;;;;;;5042622;28;20045;-50
2022/08/29 10:57:58;;;;;;;4.82;2.28;;;;;;;;;;5044977;28;20482;-51
2022/08/29 11:00:35;;;;;;;8.98;2.72;;;;;;;;;;5044690;28;20245;-50
2022/08/29 11:03:19;;;;;;;9.05;2.17;;;;;;;;;;5042483;28;20025;-49
2022/08/29 11:05:55;;;;;;;4.72;2.03;;;;;;;;;;5040746;28;20037;-51
2022/08/29 11:08:33;;;;;;;4.30;2.42;;;;;;;;;;5044348;28;20036;-48
2022/08/29 11:10:59;;;;;;;4.05;2.40;;;;;;;;;;5041795;28;20033;-47
2022/08/29 11:13:37;;;;;;;2.40;2.20;;;;;;;;;;5044840;28;20106;-46
2022/08/29 11:16:10;;;;;;;2.85;2.13;;;;;;;;;;5043246;28;20516;-52
2022/08/29 11:18:42;;;;;;;2.20;2.10;;;;;;;;;;5042608;28;20493;-48
2022/08/29 11:21:31;;;;;;;3.38;2.00;;;;;;;;;;5045972;28;20496;-51
2022/08/29 11:23:57;;;;;;;3.08;2.10;;;;;;;;;;5042471;28;20033;-46
2022/08/29 11:26:35;;;;;;;3.42;1.98;;;;;;;;;;5045962;28;20382;-52
2022/08/29 11:29:19;;;;;;;3.15;2.13;;;;;;;;;;5046747;28;20024;-51
2022/08/29 11:31:56;;;;;;;5.82;2.00;;;;;;;;;;5046540;28;20056;-47
2022/08/29 11:34:43;;;;;;;8.15;2.05;;;;;;;;;;5045090;28;20033;-50
2022/08/29 11:37:29;;;;;;;4.63;1.90;;;;;;;;;;5044717;28;20086;-50
2022/08/29 11:39:55;;;;;;;4.68;2.00;;;;;;;;;;5035196;28;20095;-52
2022/08/29 11:42:26;;;;;;;7.68;2.08;;;;;;;;;;5044644;28;20033;-52
2022/08/29 11:44:57;;;;;;;8.80;1.98;;;;;;;;;;5043689;28;20036;-48
2022/08/29 11:47:54;;;;;;;4.65;2.00;;;;;;;;;;5043101;28;21911;-48
2022/08/29 11:50:37;;;;;;;5.03;1.70;;;;;;;;;;5046249;28;20029;-48
2022/08/29 11:53:09;;;;;;;3.88;2.13;;;;;;;;;;5045049;28;20045;-51
2022/08/29 11:55:57;;;;;;;3.42;2.17;;;;;;;;;;5045921;28;20040;-49
2022/08/29 11:58:23;;;;;;;2.72;1.60;;;;;;;;;;5034409;28;20037;-48
2022/08/29 12:00:51;;;;;;;4.20;1.60;;;;;;;;;;5045465;28;20063;-47
2022/08/29 12:03:32;;;;;;;7.28;1.67;;;;;;;;;;5043970;28;20075;-47
2022/08/29 12:06:16;;;;;;;1.70;1.60;;;;;;;;;;5044973;28;20029;-49
2022/08/29 12:09:12;;;;;;;3.72;1.67;;;;;;;;;;5039657;28;20672;-51
2022/08/29 12:12:11;;;;;;;3.63;2.03;;;;;;;;;;5043303;28;20072;-47
2022/08/29 12:14:41;;;;;;;3.90;1.83;;;;;;;;;;5042388;28;20401;-47
2022/08/29 12:17:29;;;;;;;3.60;2.20;;;;;;;;;;5040542;28;20028;-53
2022/08/29 12:19:55;;;;;;;3.95;1.92;;;;;;;;;;5040073;28;20033;-49
2022/08/29 12:22:43;;;;;;;4.55;2.53;;;;;;;;;;5044243;28;20059;-49
2022/08/29 12:25:36;;;;;;;5.18;1.95;;;;;;;;;;5043543;28;20068;-51
2022/08/29 12:28:36;;;;;;;7.15;1.88;;;;;;;;;;5045910;28;20036;-46
2022/08/29 12:31:08;;;;;;;5.47;1.77;;;;;;;;;;5043108;28;20040;-48
2022/08/29 12:33:56;;;;;;;7.15;1.50;;;;;;;;;;5043683;28;20033;-48
2022/08/29 12:36:46;;;;;;;3.35;1.80;;;;;;;;;;5046297;28;20037;-46
2022/08/29 12:39:40;;;;;;;2.58;1.48;;;;;;;;;;5048778;28;20269;-51
2022/08/29 12:42:42;;;;;;;5.40;1.85;;;;;;;;;;5046942;28;20133;-48
2022/08/29 12:45:30;;;;;;;;;;;;;;;;;;5051183;28;20120;-49
2022/08/29 12:48:00;;;;;;;2.30;1.80;;;;;;;;;;5046169;28;19959;-48
2022/08/29 12:50:31;;;;;;;6.65;1.88;;;;;;;;;;5047568;28;20030;-49
2022/08/29 12:53:28;;;;;;;3.40;1.83;;;;;;;;;;5047071;28;20029;-46
2022/08/29 12:55:58;;;;;;;4.30;1.98;;;;;;;;;;5042641;28;20045;-49
2022/08/29 12:58:57;;;;;;;3.75;1.90;;;;;;;;;;5045490;28;20083;-49
2022/08/29 13:01:39;;;;;;;3.58;1.98;;;;;;;;;;5049485;28;20056;-49
2022/08/29 13:04:15;;;;;;;4.03;2.10;;;;;;;;;;5046603;28;20037;-46
2022/08/29 13:06:57;;;;;;;5.50;2.20;;;;;;;;;;5050222;28;20020;-51
2022/08/29 13:09:52;;;;;;;4.05;2.05;;;;;;;;;;5043823;28;20087;-52
2022/08/29 13:12:25;;;;;;;8.43;2.30;;;;;;;;;;5047484;28;20033;-52
2022/08/29 13:15:16;;;;;;;4.15;2.10;;;;;;;;;;5042934;28;20506;-53
2022/08/29 13:17:45;;;;;;;3.92;1.95;;;;;;;;;;5048194;28;20029;-50
2022/08/29 13:20:35;;;;;;;4.68;2.10;;;;;;;;;;5044718;28;20489;-49
2022/08/29 13:23:16;;;;;;;4.25;2.45;;;;;;;;;;5045426;28;20037;-53
2022/08/29 13:25:55;;;;;;;4.15;2.30;;;;;;;;;;5047172;28;20037;-50
2022/08/29 13:28:39;;;;;;;3.45;2.03;;;;;;;;;;5043406;28;20035;-51
2022/08/29 13:31:11;;;;;;;2.85;1.83;;;;;;;;;;5044506;28;20032;-50
2022/08/29 13:33:39;;;;;;;2.05;1.70;;;;;;;;;;5047375;28;20545;-49
2022/08/29 13:36:39;;;;;;;5.72;1.70;;;;;;;;;;5046690;28;20032;-51
2022/08/29 13:39:14;;;;;;;10.68;2.15;;;;;;;;;;5046918;28;20094;-47
2022/08/29 13:41:46;;;;;;;5.10;2.00;;;;;;;;;;5047914;28;20091;-52
2022/08/29 13:44:25;;;;;;;4.63;1.90;;;;;;;;;;5046321;28;20062;-51
2022/08/29 13:46:52;;;;;;;4.40;1.83;;;;;;;;;;5046746;28;20120;-52
2022/08/29 13:49:21;;;;;;;7.90;2.58;;;;;;;;;;5045908;28;20020;-50
2022/08/29 13:51:47;;;;;;;7.53;1.95;;;;;;;;;;5047480;28;20031;-52
2022/08/29 13:54:13;;;;;;;4.90;1.92;;;;;;;;;;5046860;28;20355;-51
2022/08/29 13:56:40;;;;;;;5.82;2.90;;;;;;;;;;5045225;28;20111;-50
2022/08/29 13:59:06;;;;;;;11.45;2.15;;;;;;;;;;5043393;28;20033;-53
2022/08/29 14:01:32;;;;;;;9.32;2.30;;;;;;;;;;5045186;28;20040;-51
2022/08/29 14:03:59;;;;;;;5.95;1.90;;;;;;;;;;5042548;28;20044;-46
2022/08/29 14:06:25;;;;;;;5.13;2.00;;;;;;;;;;5047653;28;20032;-48
2022/08/29 14:08:52;;;;;;;4.72;2.47;;;;;;;;;;5048249;28;20044;-51
2022/08/29 14:11:19;;;;;;;5.05;2.38;;;;;;;;;;5046957;28;20029;-52
2022/08/29 14:13:46;;;;;;;15.02;2.45;;;;;;;;;;5045263;28;20033;-51
2022/08/29 14:16:13;;;;;;;6.43;2.08;;;;;;;;;;5047695;28;20028;-52
2022/08/29 14:18:39;;;;;;;8.63;2.45;;;;;;;;;;5046928;28;20040;-49
2022/08/29 14:21:06;;;;;;;9.07;2.25;;;;;;;;;;5045237;28;20033;-48
2022/08/29 14:23:32;;;;;;;6.85;2.20;;;;;;;;;;5046716;28;20044;-51
2022/08/29 14:26:09;;;;;;;5.78;2.20;;;;;;;;;;5044845;28;20029;-50
2022/08/29 14:28:38;;;;;;;3.95;1.83;;;;;;;;;;5054972;28;20437;-53
2022/08/29 14:31:04;;;;;;;3.40;1.80;;;;;;;;;;5046088;28;20060;-52
2022/08/29 14:33:30;;;;;;;4.03;1.65;;;;;;;;;;5046380;28;20025;-50
2022/08/29 14:35:56;;;;;;;6.18;1.90;;;;;;;;;;5043093;28;20032;-49
2022/08/29 14:38:21;;;;;;;3.47;2.00;;;;;;;;;;5045777;28;20043;-48
2022/08/29 14:40:47;;;;;;;9.68;1.80;;;;;;;;;;5046819;28;20032;-50
2022/08/29 14:43:13;;;;;;;7.55;1.73;;;;;;;;;;5045794;28;20374;-47
2022/08/29 14:45:39;;;;;;;7.40;1.95;;;;;;;;;;5046221;28;20040;-50
2022/08/29 14:48:05;;;;;;;9.10;2.10;;;;;;;;;;5028481;28;20115;-46
2022/08/29 14:50:31;;;;;;;6.25;1.90;;;;;;;;;;5043043;28;20029;-51
2022/08/29 14:52:57;;;;;;;7.53;2.15;;;;;;;;;;5043613;28;20048;-52
2022/08/29 14:55:23;;;;;;;6.32;1.80;;;;;;;;;;5046167;28;20127;-49
2022/08/29 14:57:49;;;;;;;3.65;1.52;;;;;;;;;;5045000;28;20060;-48
2022/08/29 15:00:19;;;;;;;6.93;2.25;;;;;;;;;;5046754;28;20488;-48
2022/08/29 15:02:45;;;;;;;4.38;1.60;;;;;;;;;;5044748;28;20489;-52
2022/08/29 15:05:11;;;;;;;4.88;1.60;;;;;;;;;;5044139;28;20045;-53
2022/08/29 15:07:38;;;;;;;4.00;1.90;;;;;;;;;;5043366;28;20032;-49
2022/08/29 15:10:04;;;;;;;6.32;1.75;;;;;;;;;;5043378;28;20045;-49
2022/08/29 15:12:30;;;;;;;3.38;1.92;;;;;;;;;;5044435;28;20056;-53